Latest Weather Observations for Kadina

IDS60801

Issued at 11:51 am CST Wednesday 21 April 2021 (issued every 10 minutes, with the page automatically refreshed every 10 minutes)

About weather observations | Map of weather stations | Latest weather observations for SA | Other Formats
Station Details ID: 022050 Name: KADINA AWS Lat: -33.97 Lon: 137.66 Height: 41.14 m
Data from the previous 72 hours. | See also: Recent months at Kadina
Date/Time
CST
Temp
°C
App
Temp
°C
Dew
Point
°C
Rel
Hum
%
Delta-T
°C
Wind Press
QNH
hPa
Press
MSL
hPa
Rain since
9am
mm
Dir  Spd
km/h
Gust
km/h
Spd
kts
Gust
kts
21/11:30am 16.4 13.1 4.8 46 5.5 N 11 20 6 11 1019.5 1019.4 0.2
21/11:00am 16.9 14.0 4.9 45 5.7 N 9 15 5 8 1019.9 1019.9 0.2
21/10:30am 16.1 12.7 4.2 45 5.5 NE 11 17 6 9 1020.1 1020.1 0.2
21/10:00am 15.1 11.4 4.2 48 5.0 NNE 13 20 7 11 1020.4 1020.4 0.0
21/09:30am 14.4 10.1 5.2 54 4.3 NNE 17 20 9 11 1020.6 1020.6 0.0
21/09:00am 13.4 8.8 5.8 60 3.6 NNE 19 24 10 13 1020.8 1020.8 1.2
21/08:30am 11.8 7.2 5.4 65 3.0 NE 19 24 10 13 1020.7 1020.7 1.2
21/08:00am 10.1 6.2 5.5 73 2.1 ENE 15 17 8 9 1020.3 1020.3 1.2
21/07:30am 8.5 5.0 5.3 80 1.4 ENE 13 17 7 9 1020.4 1020.4 1.2
21/07:00am 7.2 4.4 5.2 87 0.9 ENE 9 13 5 7 1020.4 1020.4 1.2
21/06:30am 5.8 2.8 4.0 88 0.8 ENE 9 11 5 6 1020.1 1020.1 1.2
21/06:00am 4.9 0.9 3.1 88 0.7 E 13 13 7 7 1020.0 1020.0 1.2
21/05:30am 4.2 0.9 2.2 87 0.8 E 9 11 5 6 1019.9 1019.9 1.2
21/05:00am 5.2 1.2 3.1 86 0.9 ESE 13 13 7 7 1019.4 1019.3 1.2
21/04:30am 5.7 1.8 3.5 86 0.9 E 13 15 7 8 1019.2 1019.1 1.2
21/04:00am 6.2 1.6 3.9 85 1.0 ESE 17 20 9 11 1019.4 1019.3 1.2
21/03:30am 6.5 1.6 4.2 85 1.0 ESE 19 19 10 10 1019.6 1019.5 1.2
21/03:00am 6.6 2.5 4.1 84 1.1 ESE 15 17 8 9 1019.6 1019.5 1.2
21/02:30am 7.7 3.7 4.7 81 1.3 ESE 15 17 8 9 1019.8 1019.8 1.2
21/02:00am 8.8 4.6 5.5 80 1.5 E 17 17 9 9 1019.9 1019.9 1.2
21/01:30am 7.9 4.3 4.8 81 1.4 E 13 13 7 7 1020.0 1020.0 1.2
21/01:00am 7.7 3.2 4.1 78 1.6 ESE 17 17 9 9 1019.9 1019.9 1.2
21/12:30am 8.6 4.1 4.4 75 1.8 ESE 17 20 9 11 1019.9 1019.9 1.2
21/12:00am 9.9 5.0 5.1 72 2.2 ESE 20 26 11 14 1020.0 1020.0 1.2
 
Date/Time
CST
Temp
°C
App
Temp
°C
Dew
Point
°C
Rel
Hum
%
Delta-T
°C
Wind Press
QNH
hPa
Press
MSL
hPa
Rain since
9am
mm
Dir  Spd
km/h
Gust
km/h
Spd
kts
Gust
kts
20/11:30pm 11.1 6.2 5.2 67 2.7 SE 20 24 11 13 1020.2 1020.2 1.2
20/11:00pm 12.2 7.7 6.0 66 2.9 SE 19 20 10 11 1020.5 1020.5 1.2
20/10:30pm 12.2 7.7 6.3 67 2.8 SE 19 20 10 11 1020.7 1020.7 1.2
20/10:00pm 12.3 8.2 6.4 67 2.8 SE 17 22 9 12 1020.7 1020.7 1.2
20/09:30pm 11.9 7.9 6.6 70 2.5 SE 17 20 9 11 1020.6 1020.6 1.2
20/09:00pm 11.6 7.7 6.9 73 2.2 SE 17 20 9 11 1020.3 1020.3 1.2
20/08:30pm 10.0 6.6 6.0 76 1.8 SE 13 15 7 8 1020.2 1020.2 1.2
20/08:00pm 9.3 6.1 5.1 75 1.9 ESE 11 13 6 7 1019.8 1019.8 1.2
20/07:30pm 10.4 6.9 5.6 72 2.2 SE 13 15 7 8 1019.5 1019.4 1.2
20/07:00pm 11.3 7.9 5.8 69 2.6 SE 13 15 7 8 1019.2 1019.1 1.2
20/06:30pm 13.1 9.1 6.7 65 3.1 SE 17 20 9 11 1018.9 1018.8 1.2
20/06:00pm 14.7 10.5 7.3 61 3.6 SE 19 24 10 13 1018.4 1018.3 1.2
20/05:30pm 16.0 11.6 7.5 57 4.2 SSE 20 24 11 13 1018.0 1017.9 1.2
20/05:00pm 16.9 12.3 8.1 56 4.5 SE 22 32 12 17 1017.8 1017.7 1.2
20/04:30pm 17.2 12.3 8.6 57 4.4 SSE 24 30 13 16 1017.5 1017.4 1.2
20/04:00pm 17.5 13.0 8.4 55 4.7 SSE 22 32 12 17 1017.2 1017.1 1.2
20/03:30pm 18.3 14.1 8.3 52 5.1 S 20 39 11 21 1016.9 1016.8 1.2
20/03:00pm 18.7 14.1 9.5 55 4.9 S 24 33 13 18 1016.8 1016.7 1.2
20/02:30pm 18.6 13.3 9.9 57 4.6 SSE 28 39 15 21 1016.7 1016.6 1.2
20/02:00pm 18.4 14.0 11.7 65 3.7 SSE 26 33 14 18 1016.8 1016.7 1.2
20/01:30pm 17.9 12.8 10.5 62 4.0 S 28 37 15 20 1016.8 1016.7 1.2
20/01:00pm 16.9 11.6 12.4 75 2.5 SSE 32 46 17 25 1016.9 1016.8 1.2
20/12:30pm 17.4 12.7 13.1 76 2.4 SSE 30 37 16 20 1016.9 1016.8 1.2
20/12:00pm 17.4 14.2 15.2 87 1.3 S 26 33 14 18 1016.9 1016.8 1.2
20/11:30am 15.7 13.3 14.4 92 0.7 SSE 20 30 11 16 1016.7 1016.6 1.2
20/11:00am 15.5 11.4 13.9 90 0.9 SSW 28 44 15 24 1016.7 1016.6 0.4
20/10:51am 15.7 9.1 13.7 88 1.1 WSW 41 52 22 28 1016.3 1016.2 0.0
20/10:30am 18.7 12.3 13.1 70 3.2 W 39 52 21 28 1016.1 1016.0 0.0
20/10:00am 18.7 12.1 12.7 68 3.4 W 39 52 21 28 1016.0 1015.9 0.0
20/09:30am 18.0 11.8 12.5 70 3.1 W 37 46 20 25 1015.9 1015.8 0.0
20/09:00am 17.9 12.1 12.8 72 2.9 W 35 44 19 24 1016.0 1015.9 0.0
20/08:30am 17.5 12.0 12.6 73 2.7 W 33 39 18 21 1015.9 1015.8 0.0
20/08:00am 17.2 12.7 12.5 74 2.6 WNW 28 35 15 19 1015.4 1015.3 0.0
20/07:30am 16.1 12.5 11.7 75 2.4 W 22 26 12 14 1015.3 1015.2 0.0
20/07:00am 15.7 11.6 11.5 76 2.3 W 24 32 13 17 1015.0 1014.9 0.0
20/06:30am 14.7 11.8 10.9 78 2.0 W 17 20 9 11 1014.7 1014.6 0.0
20/06:00am 14.0 11.8 12.0 88 1.1 W 15 22 8 12 1014.9 1014.8 0.0
20/05:56am 12.0 10.6 10.9 93 0.6 WNW 9 20 5 11 1015.0 1014.9 0.0
20/05:30am 6.3 4.7 2.4 76 1.6 CALM 0 0 0 0 1014.8 1014.7 0.0
20/05:00am 6.3 4.7 2.4 76 1.6 CALM 0 0 0 0 1014.7 1014.6 0.0
20/04:30am 6.2 4.6 2.5 77 1.5 CALM 0 0 0 0 1014.3 1014.2 0.0
20/04:00am 6.5 3.8 2.6 76 1.6 NE 6 7 3 4 1014.2 1014.1 0.0
20/03:30am 6.2 2.8 2.1 75 1.7 NE 9 11 5 6 1014.1 1014.0 0.0
20/03:00am 6.9 3.6 2.6 74 1.8 NE 9 11 5 6 1014.4 1014.3 0.0
20/02:30am 7.6 4.8 3.1 73 1.9 NE 7 9 4 5 1014.9 1014.8 0.0
20/02:00am 8.1 4.9 3.2 71 2.1 NE 9 11 5 6 1015.1 1015.0 0.0
20/01:30am 8.6 5.5 3.6 71 2.2 SSW 9 11 5 6 1015.2 1015.1 0.0
20/01:00am 9.2 7.9 4.2 71 2.2 CALM 0 6 0 3 1015.5 1015.4 0.0
20/12:30am 10.4 8.2 5.4 71 2.3 SSW 6 7 3 4 1015.5 1015.4 0.0
20/12:00am 10.9 8.8 5.7 70 2.4 SSW 6 6 3 3 1015.6 1015.5 0.0
 
Date/Time
CST
Temp
°C
App
Temp
°C
Dew
Point
°C
Rel
Hum
%
Delta-T
°C
Wind Press
QNH
hPa
Press
MSL
hPa
Rain since
9am
mm
Dir  Spd
km/h
Gust
km/h
Spd
kts
Gust
kts
19/11:30pm 12.1 9.6 6.6 69 2.6 SSW 9 11 5 6 1015.8 1015.7 0.0
19/11:00pm 11.9 8.6 6.4 69 2.6 S 13 15 7 8 1015.9 1015.8 0.0
19/10:30pm 11.9 7.8 6.2 68 2.7 S 17 17 9 9 1016.0 1015.9 0.0
19/10:00pm 12.4 8.3 6.2 66 2.9 S 17 19 9 10 1015.9 1015.8 0.0
19/09:30pm 12.7 8.7 6.5 66 3.0 S 17 19 9 10 1015.8 1015.7 0.0
19/09:00pm 13.1 8.7 6.5 64 3.2 S 19 20 10 11 1015.7 1015.6 0.0
19/08:30pm 12.4 9.2 5.1 61 3.4 S 11 13 6 7 1015.7 1015.6 0.0
19/08:00pm 12.7 10.2 4.7 58 3.7 NNE 7 7 4 4 1015.7 1015.6 0.0
19/07:30pm 14.7 13.9 6.5 58 4.0 CALM 0 2 0 1 1015.8 1015.7 0.0
19/07:00pm 15.6 13.4 6.1 53 4.6 NNE 7 7 4 4 1015.6 1015.5 0.0
19/06:30pm 16.5 13.8 5.8 49 5.2 N 9 11 5 6 1015.6 1015.5 0.0
19/06:00pm 18.3 16.4 6.5 46 5.9 W 6 7 3 4 1015.6 1015.5 0.0
19/05:30pm 20.1 19.4 7.1 43 6.6 CALM 0 0 0 0 1015.5 1015.4 0.0
19/05:00pm 20.3 18.5 7.0 42 6.8 W 6 9 3 5 1015.5 1015.4 0.0
19/04:30pm 20.9 19.3 7.9 43 6.7 E 6 9 3 5 1015.7 1015.6 0.0
19/04:00pm 20.8 18.7 8.1 44 6.6 WNW 9 13 5 7 1015.8 1015.7 0.0
19/03:30pm 20.3 18.2 8.3 46 6.3 WSW 9 15 5 8 1016.0 1015.9 0.0
19/03:00pm 20.3 18.2 8.3 46 6.3 WNW 9 17 5 9 1016.1 1016.0 0.0
19/02:30pm 20.1 18.0 8.1 46 6.2 NW 9 20 5 11 1016.3 1016.2 0.0
19/02:00pm 20.6 17.4 8.6 46 6.3 WNW 15 24 8 13 1016.5 1016.4 0.0
19/01:30pm 20.1 15.9 8.4 47 6.1 NW 20 30 11 16 1016.9 1016.8 0.0
19/01:00pm 20.6 16.3 7.2 42 6.9 NNW 19 28 10 15 1017.6 1017.5 0.0
19/12:30pm 20.2 15.0 7.2 43 6.6 WNW 24 35 13 19 1018.2 1018.1 0.0
19/12:00pm 19.7 14.3 8.1 47 6.0 NW 26 33 14 18 1018.9 1018.8 0.0
19/11:30am 19.7 15.2 9.9 53 5.2 NNW 24 35 13 19 1019.2 1019.1 0.0
19/11:00am 19.2 14.2 9.4 53 5.2 NNW 26 32 14 17 1019.6 1019.5 0.0
19/10:30am 18.9 14.4 9.9 56 4.8 NW 24 32 13 17 1019.9 1019.9 0.0
19/10:00am 18.6 14.3 10.7 60 4.3 NW 24 32 13 17 1020.1 1020.1 0.0
19/09:30am 18.4 15.1 11.5 64 3.8 NNW 20 26 11 14 1020.3 1020.3 0.0
19/09:00am 17.2 13.7 10.8 66 3.4 NW 20 24 11 13 1020.4 1020.4 0.0
19/08:30am 16.1 14.1 10.2 68 3.1 N 11 13 6 7 1020.4 1020.4 0.0
19/08:00am 14.1 11.2 8.1 67 3.0 N 13 15 7 8 1020.3 1020.3 0.0
19/07:30am 12.4 8.8 8.3 76 2.0 N 17 19 9 10 1020.1 1020.1 0.0
19/07:00am 10.5 8.1 7.0 79 1.7 NNE 9 11 5 6 1020.3 1020.3 0.0
19/06:30am 10.4 6.8 6.7 78 1.7 NNE 15 17 8 9 1020.1 1020.1 0.0
19/06:00am 10.7 7.1 6.8 77 1.8 NNE 15 15 8 8 1020.0 1020.0 0.0
19/05:30am 11.2 7.6 6.9 75 2.0 NNE 15 17 8 9 1019.9 1019.9 0.0
19/05:00am 11.9 9.6 7.6 75 2.1 ENE 9 9 5 5 1020.0 1020.0 0.0
19/04:30am 11.1 9.1 7.2 77 1.9 ENE 7 9 4 5 1020.1 1020.1 0.0
19/04:00am 10.1 7.6 6.4 78 1.7 ENE 9 11 5 6 1020.1 1020.1 0.0
19/03:30am 9.9 7.3 6.3 78 1.7 ENE 9 11 5 6 1020.3 1020.3 0.0
19/03:00am 9.6 7.0 6.1 79 1.6 ENE 9 9 5 5 1020.6 1020.6 0.0
19/02:30am 8.8 6.1 5.7 81 1.4 E 9 11 5 6 1020.9 1020.9 0.0
19/02:00am 8.2 5.4 5.3 82 1.3 ENE 9 9 5 5 1021.2 1021.2 0.0
19/01:30am 8.2 5.4 5.1 81 1.4 ENE 9 11 5 6 1021.6 1021.6 0.0
19/01:00am 8.2 5.4 5.1 81 1.4 ESE 9 9 5 5 1021.7 1021.7 0.0
19/12:30am 8.7 6.0 5.6 81 1.4 ESE 9 9 5 5 1022.1 1022.1 0.0
19/12:00am 9.1 6.4 5.5 78 1.6 E 9 11 5 6 1022.2 1022.2 0.0
 
Date/Time
CST
Temp
°C
App
Temp
°C
Dew
Point
°C
Rel
Hum
%
Delta-T
°C
Wind Press
QNH
hPa
Press
MSL
hPa
Rain since
9am
mm
Dir  Spd
km/h
Gust
km/h
Spd
kts
Gust
kts
18/11:30pm 9.7 7.1 5.9 77 1.7 E 9 9 5 5 1022.5 1022.5 0.0
18/11:00pm 9.9 7.3 5.9 76 1.8 ESE 9 11 5 6 1022.8 1022.8 0.0
18/10:30pm 10.9 8.1 6.8 76 1.9 ESE 11 11 6 6 1022.9 1022.9 0.0
18/10:00pm 11.6 11.0 7.3 75 2.1 CALM 0 0 0 0 1023.2 1023.2 0.0
18/09:30pm 11.4 10.3 7.1 75 2.0 SSW 2 6 1 3 1023.3 1023.3 0.0
18/09:00pm 12.0 10.1 7.7 75 2.1 SSW 7 9 4 5 1023.2 1023.2 0.0
18/08:30pm 12.3 10.2 8.2 76 2.0 SSW 9 9 5 5 1023.3 1023.3 0.0
18/08:00pm 12.5 10.0 8.0 74 2.2 SSW 11 11 6 6 1023.4 1023.4 0.0
18/07:30pm 13.1 11.0 8.2 72 2.4 SSW 9 11 5 6 1023.6 1023.6 0.0
18/07:00pm 13.8 11.7 8.2 69 2.8 SW 9 11 5 6 1023.6 1023.6 0.0
18/06:30pm 15.3 13.0 9.0 66 3.2 SW 11 13 6 7 1023.6 1023.6 0.0
18/06:00pm 16.7 13.7 9.1 61 3.9 SW 15 20 8 11 1023.4 1023.4 0.0
18/05:30pm 18.4 14.2 8.1 51 5.3 SW 20 26 11 14 1023.4 1023.4 0.0
18/05:00pm 18.4 14.1 7.8 50 5.4 SW 20 28 11 15 1023.3 1023.3 0.0
18/04:30pm 18.6 14.5 7.7 49 5.5 SW 19 26 10 14 1023.3 1023.3 0.0
18/04:00pm 19.1 14.8 7.8 48 5.8 SW 20 30 11 16 1023.4 1023.4 0.0
18/03:30pm 18.8 14.3 10.1 57 4.6 SW 24 35 13 19 1023.7 1023.7 0.0
18/03:00pm 19.0 14.7 9.5 54 5.0 SW 22 32 12 17 1023.7 1023.7 0.0
18/02:30pm 19.2 15.4 9.1 52 5.3 SW 19 24 10 13 1023.7 1023.7 0.0
18/02:00pm 19.1 14.7 9.0 52 5.3 SW 22 35 12 19 1023.9 1023.9 0.0
18/01:30pm 19.0 15.2 9.8 55 4.9 SW 20 30 11 16 1024.4 1024.4 0.0
18/01:00pm 18.4 14.9 10.8 61 4.1 WSW 20 30 11 16 1024.8 1024.8 0.0
18/12:30pm 17.4 12.3 11.9 70 3.0 SW 30 35 16 19 1025.2 1025.2 0.0
18/12:00pm 18.5 14.6 9.3 55 4.8 WNW 20 28 11 15 1025.6 1025.6 0.0

Other formats

Comma delimited format used in spreadsheet applications
http://www.bom.gov.au/fwo/IDS60801/IDS60801.94685.axf

JavaScript Object Notation format (JSON) in row-major order
http://www.bom.gov.au/fwo/IDS60801/IDS60801.94685.json

Data quality

Most of these data are generated automatically and are frequently updated. Quality checks on data are not normally performed. It is possible for incorrect values to appear. Refer to information at About Latest Weather Observations and please check the disclaimer before using these data.